Time;durP1;ratioP1;P1;durP2;ratioP2;P2;SDS_P1;SDS_P2;PMS_P1;PMS_P2;Temp;Humidity;BMP_temperature;BMP_pressure;BME280_temperature;BME280_humidity;BME280_pressure;Samples;Min_cycle;Max_cycle;Signal;HPM_P1;HPM_P2
2024/01/01 00:01:40;;;;;;;99.05;92.35;;;;;;;10.14;65.60;99735.84;5033088;28;20037;-72
2024/01/01 00:04:06;;;;;;;84.78;79.93;;;;;;;10.13;65.63;99734.22;5034123;28;20033;-71
2024/01/01 00:06:31;;;;;;;82.38;77.63;;;;;;;10.13;65.60;99734.22;5017399;28;20045;-72
2024/01/01 00:08:56;;;;;;;84.47;79.68;;;;;;;10.12;65.59;99743.41;5010214;28;20104;-71
2024/01/01 00:11:22;;;;;;;87.30;82.18;;;;;;;10.11;65.44;99733.69;5010471;28;20049;-71
2024/01/01 00:13:47;;;;;;;79.75;75.57;;;;;;;10.09;65.65;99736.63;5030524;28;20438;-71
2024/01/01 00:16:16;;;;;;;73.72;69.95;;;;;;;10.09;65.45;99733.13;5010765;28;20113;-72
2024/01/01 00:18:41;;;;;;;79.65;75.68;;;;;;;10.10;65.54;99743.66;5027574;28;20034;-71
2024/01/01 00:21:08;;;;;;;86.97;81.47;;;;;;;10.11;65.39;99739.09;5017986;28;20038;-71
2024/01/01 00:23:33;;;;;;;82.95;78.35;;;;;;;10.09;65.42;99725.03;5028812;28;20445;-72
2024/01/01 00:25:58;;;;;;;73.55;70.03;;;;;;;10.10;65.52;99737.44;5029695;28;20026;-71
2024/01/01 00:28:24;;;;;;;77.78;73.60;;;;;;;10.10;65.42;99734.75;5028500;28;20128;-71
2024/01/01 00:30:49;;;;;;;78.60;74.70;;;;;;;10.09;65.47;99725.03;5036164;28;20470;-72
2024/01/01 00:33:14;;;;;;;80.57;75.88;;;;;;;10.09;65.38;99708.84;5018499;28;20482;-72
2024/01/01 00:35:40;;;;;;;81.15;76.80;;;;;;;10.08;65.31;99713.44;5009596;28;20109;-72
2024/01/01 00:38:05;;;;;;;82.15;77.63;;;;;;;10.06;65.35;99720.19;5019363;28;20435;-71
2024/01/01 00:40:31;;;;;;;78.75;74.63;;;;;;;10.03;65.29;99717.97;5020477;28;20040;-72
2024/01/01 00:42:56;;;;;;;78.60;74.53;;;;;;;10.05;65.34;99715.84;5021135;28;20121;-71
2024/01/01 00:45:22;;;;;;;78.20;74.22;;;;;;;10.06;65.36;99718.28;5010418;28;20459;-72
2024/01/01 00:47:47;;;;;;;80.55;76.22;;;;;;;10.04;64.95;99709.63;5014220;28;20547;-72
2024/01/01 00:50:13;;;;;;;75.43;71.55;;;;;;;10.01;65.30;99712.06;5024492;28;20545;-71
2024/01/01 00:52:38;;;;;;;79.40;75.38;;;;;;;10.02;65.05;99716.38;5028077;28;20102;-72
2024/01/01 00:55:05;;;;;;;76.70;73.20;;;;;;;10.02;65.02;99714.47;5028894;28;20493;-72
2024/01/01 00:57:30;;;;;;;72.93;69.40;;;;;;;10.03;65.23;99723.38;5021046;28;20137;-72
2024/01/01 00:59:55;;;;;;;74.70;71.18;;;;;;;10.04;65.08;99723.13;5010604;28;20117;-72
2024/01/01 01:02:21;;;;;;;77.18;73.50;;;;;;;10.06;64.96;99725.56;5021232;28;20047;-72
2024/01/01 01:04:47;;;;;;;78.03;74.35;;;;;;;10.05;64.91;99732.84;5012749;28;20110;-72
2024/01/01 01:07:13;;;;;;;80.53;76.50;;;;;;;10.05;65.19;99732.84;5029106;28;20036;-72
2024/01/01 01:09:38;;;;;;;69.70;66.30;;;;;;;10.07;65.12;99732.59;5027849;28;20140;-72
2024/01/01 01:12:04;;;;;;;74.70;70.93;;;;;;;10.07;65.01;99744.19;5019102;28;20041;-72
2024/01/01 01:14:30;;;;;;;78.13;74.43;;;;;;;10.07;64.99;99735.28;5035644;28;20509;-71
2024/01/01 01:16:55;;;;;;;78.93;74.72;;;;;;;10.07;64.87;99737.97;5023956;28;20034;-72
2024/01/01 01:19:20;;;;;;;74.38;70.90;;;;;;;10.06;64.98;99739.06;5026482;28;20037;-71
2024/01/01 01:21:46;;;;;;;76.85;73.35;;;;;;;10.06;64.96;99756.06;5023661;28;20061;-74
2024/01/01 01:24:15;;;;;;;74.72;70.72;;;;;;;10.05;65.25;99753.63;5030903;28;20034;-72
2024/01/01 01:26:44;;;;;;;74.10;70.70;;;;;;;10.03;64.98;99740.41;5041473;28;20052;-71
2024/01/01 01:29:09;;;;;;;80.45;76.90;;;;;;;10.02;65.04;99740.66;5031723;28;20034;-72
2024/01/01 01:31:35;;;;;;;78.05;74.45;;;;;;;10.00;64.96;99735.50;5017643;28;20034;-72
2024/01/01 01:34:01;;;;;;;74.45;70.65;;;;;;;10.00;64.70;99729.31;5011155;28;20060;-72
2024/01/01 01:36:26;;;;;;;70.65;67.35;;;;;;;9.99;65.03;99730.41;5018292;28;20034;-72
2024/01/01 01:38:52;;;;;;;75.85;72.45;;;;;;;9.97;64.99;99741.44;5030579;28;20037;-72
2024/01/01 01:41:18;;;;;;;79.85;75.93;;;;;;;9.98;65.12;99732.28;5034529;28;20197;-71
2024/01/01 01:43:43;;;;;;;67.72;64.63;;;;;;;9.97;65.05;99736.03;5049839;28;20065;-72
2024/01/01 01:46:09;;;;;;;72.13;68.82;;;;;;;9.99;65.20;99738.50;5034637;28;20069;-72
2024/01/01 01:48:35;;;;;;;71.95;67.97;;;;;;;10.01;65.35;99745.25;5051399;28;20029;-71
2024/01/01 01:51:01;;;;;;;70.93;67.30;;;;;;;10.01;65.20;99744.44;5024742;28;20045;-71
2024/01/01 01:53:27;;;;;;;77.15;73.55;;;;;;;10.00;65.25;99748.19;5015247;28;20084;-71
2024/01/01 01:55:56;;;;;;;69.88;66.60;;;;;;;10.00;65.34;99757.09;5018886;28;20038;-71
2024/01/01 01:58:22;;;;;;;70.40;67.03;;;;;;;10.01;65.35;99749.84;5030184;28;20052;-72
2024/01/01 02:00:48;;;;;;;74.70;71.30;;;;;;;10.00;65.38;99750.91;5032769;28;20037;-71
2024/01/01 02:03:14;;;;;;;73.10;69.25;;;;;;;9.98;65.44;99756.56;5018938;28;20478;-71
2024/01/01 02:05:39;;;;;;;79.72;75.78;;;;;;;9.96;65.52;99751.44;5019231;28;20045;-72
2024/01/01 02:08:07;;;;;;;72.82;69.28;;;;;;;9.95;65.51;99765.16;5011605;28;20068;-72
2024/01/01 02:10:32;;;;;;;74.68;71.03;;;;;;;9.93;65.39;99762.75;5015487;28;20132;-72
2024/01/01 02:12:59;;;;;;;77.53;73.82;;;;;;;9.92;65.63;99753.00;5013007;28;20148;-72
2024/01/01 02:15:25;;;;;;;72.88;69.55;;;;;;;9.94;65.49;99747.38;5025669;28;20041;-72
2024/01/01 02:17:51;;;;;;;70.68;67.45;;;;;;;9.94;65.57;99747.38;5033207;28;20036;-73
2024/01/01 02:20:17;;;;;;;70.43;67.03;;;;;;;9.93;65.71;99751.97;5018364;28;20425;-72
2024/01/01 02:22:42;;;;;;;69.88;66.43;;;;;;;9.95;65.48;99770.56;5026887;28;20105;-72
2024/01/01 02:25:09;;;;;;;72.32;69.05;;;;;;;9.96;65.67;99769.50;5016898;28;20030;-73
2024/01/01 02:27:37;;;;;;;78.60;74.85;;;;;;;9.95;65.50;99779.50;5029304;28;20026;-72
2024/01/01 02:30:03;;;;;;;68.93;65.68;;;;;;;9.93;65.50;99776.22;5014416;28;20475;-72
2024/01/01 02:32:29;;;;;;;73.50;70.15;;;;;;;9.94;65.74;99777.84;5035731;28;20050;-72
2024/01/01 02:34:54;;;;;;;73.50;70.07;;;;;;;9.91;65.86;99767.59;5023580;28;20030;-72
2024/01/01 02:37:19;;;;;;;68.15;65.05;;;;;;;9.92;65.72;99765.69;4997152;28;20037;-72
2024/01/01 02:39:45;;;;;;;69.35;65.95;;;;;;;9.93;65.73;99772.72;5019421;28;20293;-72
2024/01/01 02:42:10;;;;;;;75.05;71.55;;;;;;;9.89;65.89;99777.81;5028283;28;20116;-72
2024/01/01 02:44:36;;;;;;;75.38;71.72;;;;;;;9.87;66.11;99774.56;5018236;28;20038;-72
2024/01/01 02:47:01;;;;;;;71.90;68.60;;;;;;;9.88;65.98;99780.81;5022391;28;20180;-72
2024/01/01 02:49:27;;;;;;;73.82;69.78;;;;;;;9.88;65.95;99778.91;5026960;28;20068;-72
2024/01/01 02:51:52;;;;;;;69.78;66.50;;;;;;;9.89;65.99;99782.41;5027306;28;20040;-71
2024/01/01 02:54:18;;;;;;;72.00;68.75;;;;;;;9.88;66.04;99786.19;5026577;28;20371;-72
2024/01/01 02:56:43;;;;;;;78.55;74.85;;;;;;;9.88;65.98;99781.59;5019349;28;20132;-71
2024/01/01 02:59:10;;;;;;;73.47;70.07;;;;;;;9.88;66.03;99783.50;5026747;28;20116;-72
2024/01/01 03:01:35;;;;;;;72.15;68.75;;;;;;;9.88;66.04;99783.50;5028046;28;20061;-71
2024/01/01 03:04:01;;;;;;;76.13;72.65;;;;;;;9.90;66.09;99778.63;5028520;28;20140;-72
2024/01/01 03:06:26;;;;;;;76.85;72.97;;;;;;;9.90;65.98;99784.03;5026730;28;20033;-73
2024/01/01 03:08:52;;;;;;;73.05;69.28;;;;;;;9.89;66.17;99782.41;5021322;28;20044;-73
2024/01/01 03:11:17;;;;;;;76.50;72.90;;;;;;;9.87;66.04;99782.66;5025360;28;20053;-72
2024/01/01 03:13:42;;;;;;;76.72;72.82;;;;;;;9.84;66.14;99783.19;5026075;28;20037;-73
2024/01/01 03:16:08;;;;;;;74.18;70.75;;;;;;;9.81;66.33;99788.31;5016427;28;20111;-72
2024/01/01 03:18:34;;;;;;;72.63;69.20;;;;;;;9.79;66.27;99788.56;5020348;28;20112;-73
2024/01/01 03:20:59;;;;;;;73.22;69.60;;;;;;;9.79;66.17;99796.66;5023301;28;20032;-73
2024/01/01 03:23:25;;;;;;;71.57;68.13;;;;;;;9.80;66.20;99790.16;5021145;28;20037;-72
2024/01/01 03:25:50;;;;;;;71.43;67.93;;;;;;;9.81;66.15;99786.41;5014895;28;20038;-73
2024/01/01 03:28:16;;;;;;;69.82;66.43;;;;;;;9.81;66.16;99797.19;5031465;28;20270;-73
2024/01/01 03:30:42;;;;;;;73.35;69.85;;;;;;;9.81;66.19;99788.31;5014761;28;20153;-72
2024/01/01 03:33:07;;;;;;;73.57;69.72;;;;;;;9.78;66.06;99795.03;5015604;28;20086;-74
2024/01/01 03:35:32;;;;;;;69.40;66.20;;;;;;;9.78;66.18;99789.63;5025122;28;20087;-73
2024/01/01 03:37:59;;;;;;;67.45;64.40;;;;;;;9.78;66.09;99803.13;5028798;28;20485;-73
2024/01/01 03:40:24;;;;;;;74.70;70.45;;;;;;;9.77;66.34;99797.97;5021747;28;20171;-73
2024/01/01 03:42:50;;;;;;;74.53;70.65;;;;;;;9.76;66.42;99794.47;5028217;28;20124;-73
2024/01/01 03:45:15;;;;;;;77.03;73.35;;;;;;;9.77;66.07;99800.69;5013241;28;20462;-72
2024/01/01 03:47:41;;;;;;;73.22;69.30;;;;;;;9.76;66.16;99797.16;5024508;28;20033;-73
2024/01/01 03:50:06;;;;;;;74.60;70.60;;;;;;;9.77;66.15;99792.59;5029738;28;20041;-73
2024/01/01 03:52:32;;;;;;;68.15;65.05;;;;;;;9.75;66.15;99798.22;5022641;28;20120;-72
2024/01/01 03:54:58;;;;;;;71.68;67.70;;;;;;;9.74;66.05;99789.34;5023547;28;20450;-72
2024/01/01 03:57:23;;;;;;;67.40;64.00;;;;;;;9.73;66.10;99808.50;5032168;28;20033;-72
2024/01/01 03:59:49;;;;;;;66.38;63.08;;;;;;;9.74;66.13;99805.50;5025011;28;20056;-72
2024/01/01 04:02:14;;;;;;;71.55;67.50;;;;;;;9.74;66.26;99796.63;5015261;28;20029;-72
2024/01/01 04:04:44;;;;;;;64.18;61.05;;;;;;;9.73;66.15;99800.41;5022553;28;20022;-72
2024/01/01 04:07:10;;;;;;;68.20;64.90;;;;;;;9.70;66.05;99807.13;5023182;28;20052;-73
2024/01/01 04:09:35;;;;;;;66.38;63.20;;;;;;;9.70;66.19;99808.97;5024903;28;20046;-73
2024/01/01 04:12:00;;;;;;;68.05;64.85;;;;;;;9.69;66.29;99804.69;5022282;28;20045;-72
2024/01/01 04:14:26;;;;;;;73.63;69.75;;;;;;;9.69;66.21;99812.75;5017506;28;20037;-73
2024/01/01 04:16:51;;;;;;;72.35;68.93;;;;;;;9.68;66.41;99808.47;5020821;28;20080;-72
2024/01/01 04:19:17;;;;;;;69.60;66.40;;;;;;;9.68;66.21;99814.66;5025838;28;20053;-73
2024/01/01 04:21:43;;;;;;;69.10;65.75;;;;;;;9.67;66.31;99810.31;5012456;28;20117;-73
2024/01/01 04:24:08;;;;;;;67.40;64.28;;;;;;;9.70;66.21;99817.06;5016636;28;20022;-73
2024/01/01 04:26:34;;;;;;;69.88;66.68;;;;;;;9.70;66.21;99812.50;5026419;28;20044;-73
2024/01/01 04:28:59;;;;;;;73.18;69.60;;;;;;;9.71;66.05;99811.44;5018494;28;20079;-73
2024/01/01 04:31:25;;;;;;;73.45;69.95;;;;;;;9.67;66.23;99823.78;5016886;28;20033;-73
2024/01/01 04:33:50;;;;;;;73.07;69.38;;;;;;;9.64;66.18;99821.63;5015488;28;20393;-73
2024/01/01 04:36:16;;;;;;;73.10;69.25;;;;;;;9.65;66.19;99830.53;5018753;28;20055;-72
2024/01/01 04:38:41;;;;;;;69.30;66.03;;;;;;;9.66;66.16;99824.88;5026681;28;20454;-74
2024/01/01 04:41:08;;;;;;;67.38;63.85;;;;;;;9.67;65.97;99825.69;5015863;28;20038;-73
2024/01/01 04:43:39;;;;;;;69.47;66.28;;;;;;;9.64;66.34;99835.09;5020483;28;20417;-73
2024/01/01 04:46:04;;;;;;;68.35;65.07;;;;;;;9.65;66.18;99833.22;5019876;28;20042;-73
2024/01/01 04:48:30;;;;;;;65.95;62.92;;;;;;;9.63;66.24;99824.59;5010331;28;20309;-73
2024/01/01 04:50:55;;;;;;;66.57;63.30;;;;;;;9.63;66.20;99835.38;5025031;28;20041;-73
2024/01/01 04:53:21;;;;;;;68.30;64.78;;;;;;;9.63;66.04;99838.88;5028943;28;20470;-73
2024/01/01 04:55:46;;;;;;;75.28;71.68;;;;;;;9.64;66.10;99840.50;5012848;28;20095;-73
2024/01/01 04:58:11;;;;;;;69.88;66.53;;;;;;;9.66;66.11;99848.34;5021835;28;20076;-73
2024/01/01 05:00:37;;;;;;;73.65;70.25;;;;;;;9.65;66.11;99849.41;5031139;28;20029;-73
2024/01/01 05:03:02;;;;;;;71.10;67.82;;;;;;;9.65;66.20;99855.63;5023283;28;20574;-73
2024/01/01 05:05:28;;;;;;;65.32;62.33;;;;;;;9.67;66.07;99855.34;5022665;28;20041;-73
2024/01/01 05:07:53;;;;;;;74.53;70.80;;;;;;;9.66;66.19;99859.13;5020339;28;20049;-73
2024/01/01 05:10:19;;;;;;;66.60;63.33;;;;;;;9.61;66.34;99867.97;5023002;28;20164;-73
2024/01/01 05:12:44;;;;;;;70.10;66.68;;;;;;;9.60;66.25;99850.19;5010857;28;20125;-74
2024/01/01 05:15:13;;;;;;;67.85;64.78;;;;;;;9.60;66.10;99854.75;5021459;28;20488;-73
2024/01/01 05:17:38;;;;;;;72.55;69.15;;;;;;;9.59;66.18;99855.84;5021718;28;20034;-73
2024/01/01 05:20:04;;;;;;;75.32;71.95;;;;;;;9.59;66.19;99869.31;5024298;28;20124;-72
2024/01/01 05:22:30;;;;;;;68.43;65.15;;;;;;;9.57;66.14;99860.66;5029798;28;20112;-73
2024/01/01 05:24:56;;;;;;;68.18;64.97;;;;;;;9.57;66.19;99860.66;5028157;28;20033;-73
2024/01/01 05:27:21;;;;;;;67.07;63.67;;;;;;;9.57;66.16;99866.06;5029428;28;20049;-73
2024/01/01 05:29:47;;;;;;;68.65;65.45;;;;;;;9.56;66.46;99873.34;5012988;28;20107;-73
2024/01/01 05:32:12;;;;;;;70.13;66.93;;;;;;;9.56;66.35;99876.03;4999388;28;20049;-73
2024/01/01 05:34:40;;;;;;;65.10;61.78;;;;;;;9.54;66.19;99872.78;5025301;28;20042;-74
2024/01/01 05:37:05;;;;;;;70.25;66.95;;;;;;;9.54;66.60;99883.56;5020452;28;20056;-73
2024/01/01 05:39:30;;;;;;;68.57;65.40;;;;;;;9.54;66.27;99887.06;5015522;28;20458;-73
2024/01/01 05:41:56;;;;;;;72.15;68.43;;;;;;;9.54;66.18;99887.06;5018264;28;20037;-74
2024/01/01 05:44:21;;;;;;;66.57;63.58;;;;;;;9.53;66.31;99900.81;5014543;28;20036;-73
2024/01/01 05:46:46;;;;;;;64.28;61.28;;;;;;;9.53;66.41;99900.81;5011909;28;20042;-73
2024/01/01 05:49:12;;;;;;;71.53;66.97;;;;;;;9.53;66.38;99898.94;5021725;28;20124;-72
2024/01/01 05:51:37;;;;;;;66.03;62.97;;;;;;;9.54;66.36;99897.84;5023876;28;20048;-73
2024/01/01 05:54:03;;;;;;;69.47;66.28;;;;;;;9.56;66.43;99904.88;5014739;28;20048;-73
2024/01/01 05:56:28;;;;;;;74.07;70.50;;;;;;;9.57;66.49;99910.00;5024951;28;20132;-73
2024/01/01 05:58:54;;;;;;;69.40;65.63;;;;;;;9.58;66.42;99908.13;5027127;28;20062;-73
2024/01/01 06:01:19;;;;;;;70.88;67.72;;;;;;;9.60;66.45;99914.06;5013918;28;20486;-72
2024/01/01 06:03:46;;;;;;;64.28;61.38;;;;;;;9.61;66.33;99918.41;5019700;28;20644;-73
2024/01/01 06:06:12;;;;;;;70.68;67.45;;;;;;;9.61;66.49;99908.44;5009849;28;20034;-73
2024/01/01 06:08:37;;;;;;;68.07;64.97;;;;;;;9.62;66.49;99917.31;5017956;28;20546;-73
2024/01/01 06:11:03;;;;;;;72.05;68.55;;;;;;;9.61;66.20;99924.59;5018584;28;20046;-74
2024/01/01 06:13:28;;;;;;;70.70;67.43;;;;;;;9.61;66.44;99926.50;5020389;28;20565;-73
2024/01/01 06:15:53;;;;;;;71.68;68.38;;;;;;;9.61;66.35;99924.59;5027262;28;20080;-73
2024/01/01 06:18:19;;;;;;;72.05;68.78;;;;;;;9.61;66.39;99934.59;5026931;28;20037;-73
2024/01/01 06:20:45;;;;;;;67.53;64.38;;;;;;;9.61;66.23;99929.19;5027188;28;20065;-73
2024/01/01 06:23:10;;;;;;;66.40;63.25;;;;;;;9.62;66.35;99939.69;5023566;28;20045;-73
2024/01/01 06:25:36;;;;;;;70.70;67.55;;;;;;;9.63;66.35;99951.31;5030575;28;20050;-73
2024/01/01 06:28:01;;;;;;;69.03;65.63;;;;;;;9.63;66.25;99949.44;5030448;28;20458;-74
2024/01/01 06:30:27;;;;;;;65.18;62.22;;;;;;;9.63;66.25;99952.13;5030769;28;20489;-73
2024/01/01 06:32:52;;;;;;;68.07;65.00;;;;;;;9.64;66.08;99942.16;5030484;28;20112;-74
2024/01/01 06:35:17;;;;;;;70.25;67.03;;;;;;;9.62;66.38;99961.28;5039300;28;20095;-73
2024/01/01 06:37:43;;;;;;;66.80;63.80;;;;;;;9.61;66.24;99975.84;5032954;28;20037;-72
2024/01/01 06:40:09;;;;;;;68.50;65.20;;;;;;;9.63;66.44;99973.72;5024619;28;20129;-73
2024/01/01 06:42:34;;;;;;;69.15;65.85;;;;;;;9.64;66.33;99971.81;5030241;28;20033;-72
2024/01/01 06:45:09;;;;;;;68.88;65.65;;;;;;;9.63;66.30;99973.72;5029567;28;20065;-72
2024/01/01 06:47:34;;;;;;;73.20;69.32;;;;;;;9.60;66.39;99982.31;5014292;28;20103;-72
2024/01/01 06:50:00;;;;;;;71.70;68.13;;;;;;;9.59;66.39;99982.56;5032302;28;20478;-72
2024/01/01 06:52:25;;;;;;;68.03;64.75;;;;;;;9.60;66.50;99990.41;5028590;28;20128;-72
2024/01/01 06:54:51;;;;;;;69.03;65.88;;;;;;;9.59;66.17;99998.72;5024839;28;20045;-72
2024/01/01 06:57:16;;;;;;;69.85;66.72;;;;;;;9.59;66.43;99993.34;5023177;28;20117;-72
2024/01/01 06:59:41;;;;;;;69.95;66.75;;;;;;;9.59;66.22;100007.63;5022148;28;20041;-74
2024/01/01 07:02:07;;;;;;;69.97;66.30;;;;;;;9.59;66.47;100004.94;5028855;28;20356;-72
2024/01/01 07:04:32;;;;;;;67.95;64.85;;;;;;;9.61;66.44;100015.47;5014409;28;20132;-72
2024/01/01 07:06:57;;;;;;;69.97;66.47;;;;;;;9.59;66.24;100014.91;5020987;28;20040;-73
2024/01/01 07:09:23;;;;;;;69.95;66.10;;;;;;;9.58;66.58;100013.28;5022007;28;20045;-73
2024/01/01 07:11:48;;;;;;;63.55;60.63;;;;;;;9.58;66.46;100022.19;5019075;28;20446;-73
2024/01/01 07:14:14;;;;;;;67.53;64.43;;;;;;;9.58;66.45;100026.78;5018131;28;20048;-72
2024/01/01 07:16:40;;;;;;;66.50;63.30;;;;;;;9.57;66.63;100025.13;5027758;28;20400;-73
2024/01/01 07:19:06;;;;;;;72.50;69.13;;;;;;;9.57;66.73;100025.94;5030081;28;20032;-73
2024/01/01 07:21:31;;;;;;;67.90;64.80;;;;;;;9.58;66.42;100024.06;5021948;28;20034;-72
2024/01/01 07:23:57;;;;;;;66.63;63.53;;;;;;;9.57;66.56;100033.22;5022959;28;20033;-73
2024/01/01 07:26:22;;;;;;;66.45;63.45;;;;;;;9.58;66.47;100042.94;5021299;28;20045;-73
2024/01/01 07:28:47;;;;;;;66.00;63.03;;;;;;;9.57;66.36;100042.13;5025832;28;20029;-74
2024/01/01 07:31:13;;;;;;;72.25;68.85;;;;;;;9.58;66.38;100046.47;5021984;28;20770;-74
2024/01/01 07:33:38;;;;;;;70.43;67.22;;;;;;;9.58;66.62;100048.34;5028794;28;20087;-73
2024/01/01 07:36:10;;;;;;;69.57;66.10;;;;;;;9.56;66.48;100053.16;5015685;28;20033;-74
2024/01/01 07:38:35;;;;;;;64.85;61.67;;;;;;;9.56;66.48;100056.69;5032688;28;20028;-72
2024/01/01 07:41:01;;;;;;;69.72;66.50;;;;;;;9.54;66.51;100062.31;5041228;28;20033;-73
2024/01/01 07:43:26;;;;;;;67.45;64.05;;;;;;;9.56;66.48;100055.88;5029357;28;20037;-73
2024/01/01 07:45:51;;;;;;;69.68;66.50;;;;;;;9.56;66.44;100063.97;5027005;28;20375;-75
2024/01/01 07:48:17;;;;;;;67.03;63.83;;;;;;;9.55;66.45;100071.22;5026150;28;20026;-73
2024/01/01 07:50:43;;;;;;;66.18;62.78;;;;;;;9.55;66.54;100063.16;5014664;28;20061;-73
2024/01/01 07:53:08;;;;;;;72.50;69.10;;;;;;;9.54;66.67;100078.47;5012954;28;20501;-73
2024/01/01 07:55:33;;;;;;;66.70;63.40;;;;;;;9.53;66.43;100079.56;5020936;28;20117;-73
2024/01/01 07:57:59;;;;;;;67.95;64.85;;;;;;;9.54;66.57;100091.97;5018974;28;20038;-72
2024/01/01 08:00:25;;;;;;;67.35;64.20;;;;;;;9.53;66.62;100093.03;5020107;28;20052;-72
2024/01/01 08:02:50;;;;;;;68.85;65.55;;;;;;;9.53;66.68;100097.63;5023127;28;20092;-73
2024/01/01 08:05:15;;;;;;;64.85;61.78;;;;;;;9.52;66.47;100094.13;5017636;28;20478;-74
2024/01/01 08:07:47;;;;;;;66.53;63.45;;;;;;;9.50;66.30;100096.25;5021660;28;20033;-74
2024/01/01 08:10:15;;;;;;;69.97;66.53;;;;;;;9.51;66.55;100105.16;5013384;28;20153;-73
2024/01/01 08:12:41;;;;;;;67.05;63.97;;;;;;;9.51;66.56;100107.84;5014275;28;20069;-73
2024/01/01 08:15:07;;;;;;;71.00;67.40;;;;;;;9.52;66.70;100099.50;5030197;28;20060;-74
2024/01/01 08:17:32;;;;;;;68.70;65.15;;;;;;;9.52;66.71;100125.63;5018355;28;20033;-73
2024/01/01 08:19:58;;;;;;;70.57;67.32;;;;;;;9.50;66.65;100112.41;5015135;28;20534;-74
2024/01/01 08:22:23;;;;;;;67.25;64.25;;;;;;;9.49;66.65;100121.56;5025755;28;20038;-73
2024/01/01 08:24:49;;;;;;;66.00;63.00;;;;;;;9.47;66.58;100126.38;5013002;28;20425;-73
2024/01/01 08:27:14;;;;;;;68.80;65.50;;;;;;;9.45;66.75;100133.94;5020705;28;20390;-74
2024/01/01 08:29:39;;;;;;;64.75;61.45;;;;;;;9.46;66.60;100134.75;5017960;28;20034;-73
2024/01/01 08:32:05;;;;;;;72.50;68.65;;;;;;;9.46;66.88;100146.31;5022961;28;20034;-73
2024/01/01 08:34:31;;;;;;;64.95;61.95;;;;;;;9.48;66.62;100154.19;5022018;28;20044;-74
2024/01/01 08:36:59;;;;;;;71.25;67.95;;;;;;;9.47;66.84;100157.91;5024301;28;20543;-73
2024/01/01 08:39:24;;;;;;;66.07;63.03;;;;;;;9.47;66.83;100158.72;5016355;28;20033;-75
2024/01/01 08:41:49;;;;;;;69.95;66.55;;;;;;;9.48;66.86;100148.78;5023568;28;20033;-74
2024/01/01 08:44:15;;;;;;;70.70;67.13;;;;;;;9.49;66.79;100153.09;5009818;28;20044;-74
2024/01/01 08:46:40;;;;;;;65.68;62.67;;;;;;;9.49;66.81;100177.38;5014252;28;20513;-73
2024/01/01 08:49:06;;;;;;;68.68;65.53;;;;;;;9.47;66.91;100161.44;5022084;28;20041;-73
2024/01/01 08:51:33;;;;;;;69.35;66.15;;;;;;;9.47;66.83;100185.69;5011331;28;20519;-73
2024/01/01 08:53:58;;;;;;;69.55;66.22;;;;;;;9.49;66.81;100182.75;5019710;28;20042;-73
2024/01/01 08:56:23;;;;;;;69.93;66.53;;;;;;;9.49;66.74;100186.25;5010296;28;20038;-73
2024/01/01 08:58:49;;;;;;;68.03;64.72;;;;;;;9.46;66.80;100191.34;5019125;28;20055;-73
2024/01/01 09:01:14;;;;;;;65.90;62.78;;;;;;;9.45;66.96;100187.00;5022327;28;20108;-72
2024/01/01 09:03:39;;;;;;;70.75;67.38;;;;;;;9.44;67.03;100191.59;5020300;28;20117;-72
2024/01/01 09:06:05;;;;;;;67.38;64.35;;;;;;;9.44;66.96;100186.19;5030542;28;20059;-73
2024/01/01 09:08:30;;;;;;;67.78;64.40;;;;;;;9.42;67.27;100209.88;5016285;28;20030;-73
2024/01/01 09:10:57;;;;;;;66.15;63.15;;;;;;;9.40;67.13;100205.81;5033568;28;20042;-73
2024/01/01 09:13:22;;;;;;;67.85;64.45;;;;;;;9.41;67.20;100219.03;5013158;28;20045;-74
2024/01/01 09:15:48;;;;;;;67.45;64.35;;;;;;;9.45;67.08;100216.66;5040764;28;20029;-74
2024/01/01 09:18:13;;;;;;;67.60;64.25;;;;;;;9.45;67.00;100209.41;5019601;28;20049;-75
2024/01/01 09:20:41;;;;;;;71.18;67.97;;;;;;;9.45;67.12;100212.09;5011674;28;20056;-73
2024/01/01 09:23:07;;;;;;;66.15;63.08;;;;;;;9.45;67.15;100205.88;5024410;28;20103;-74
2024/01/01 09:25:34;;;;;;;67.03;63.78;;;;;;;9.46;67.16;100213.72;5023147;28;20441;-74
2024/01/01 09:27:59;;;;;;;69.13;65.82;;;;;;;9.48;67.01;100211.59;5024844;28;20033;-74
2024/01/01 09:30:25;;;;;;;65.35;62.30;;;;;;;9.50;66.63;100220.25;5022419;28;20108;-74
2024/01/01 09:32:50;;;;;;;67.57;64.20;;;;;;;9.50;66.96;100216.75;5023055;28;20044;-74
2024/01/01 09:35:16;;;;;;;67.43;64.07;;;;;;;9.47;67.07;100230.72;5015819;28;20046;-74
2024/01/01 09:37:41;;;;;;;67.00;63.67;;;;;;;9.44;67.19;100229.31;5020096;28;20037;-74
2024/01/01 09:40:07;;;;;;;70.97;67.38;;;;;;;9.44;67.15;100234.72;5017107;28;20034;-76
2024/01/01 09:42:32;;;;;;;70.07;66.72;;;;;;;9.42;67.15;100242.22;5010183;28;20116;-74
2024/01/01 09:44:58;;;;;;;65.07;62.10;;;;;;;9.41;67.17;100229.03;5010937;28;20038;-73
2024/01/01 09:47:23;;;;;;;71.53;68.22;;;;;;;9.43;67.26;100253.84;5020135;28;20064;-74
2024/01/01 09:49:49;;;;;;;65.05;62.05;;;;;;;9.45;67.24;100249.00;5034965;28;20203;-74
2024/01/01 09:52:15;;;;;;;62.70;59.75;;;;;;;9.45;67.13;100252.53;5021100;28;20453;-73
2024/01/01 09:54:41;;;;;;;63.35;60.40;;;;;;;9.44;67.32;100253.59;5012616;28;20076;-74
2024/01/01 09:57:06;;;;;;;66.85;63.75;;;;;;;9.46;67.26;100253.34;5022818;28;20052;-74
2024/01/01 09:59:34;;;;;;;66.57;63.00;;;;;;;9.46;67.33;100259.56;5021708;28;20520;-75
2024/01/01 10:02:06;;;;;;;64.70;61.78;;;;;;;9.48;67.16;100262.03;5041914;28;20465;-75
2024/01/01 10:04:32;;;;;;;65.13;62.08;;;;;;;9.48;66.89;100273.63;5028111;28;20315;-74
2024/01/01 10:07:01;;;;;;;60.85;57.90;;;;;;;9.48;67.05;100279.00;5027816;28;20065;-74
2024/01/01 10:09:27;;;;;;;69.72;66.32;;;;;;;9.49;67.08;100280.63;5032565;28;20580;-74
2024/01/01 10:12:06;;;;;;;64.68;61.35;;;;;;;9.50;67.13;100276.06;5016775;28;20049;-76
2024/01/01 10:14:31;;;;;;;;;;;;;;;9.52;67.11;100293.63;5019730;28;20037;-74
2024/01/01 10:17:11;;;;;;;67.00;63.90;;;;;;;9.50;66.98;100287.66;5030842;28;19917;-75
2024/01/01 10:19:56;;;;;;;60.58;57.80;;;;;;;9.50;67.12;100293.06;5024618;28;20034;-76
2024/01/01 10:22:23;;;;;;;67.90;64.32;;;;;;;9.51;67.21;100291.19;5026930;28;20032;-75
2024/01/01 10:24:52;;;;;;;68.40;65.20;;;;;;;9.49;67.45;100304.88;5033012;28;20029;-74
2024/01/01 10:27:19;;;;;;;68.03;64.68;;;;;;;9.49;67.28;100301.38;5038174;28;20124;-74
2024/01/01 10:29:48;;;;;;;68.20;65.00;;;;;;;9.51;67.36;100307.34;5038637;28;20440;-74
2024/01/01 10:32:17;;;;;;;68.57;65.18;;;;;;;9.50;67.38;100300.34;5034311;28;20453;-74
2024/01/01 10:34:47;;;;;;;68.57;65.53;;;;;;;9.51;67.29;100299.25;5039549;28;20542;-74
2024/01/01 10:37:18;;;;;;;65.32;62.35;;;;;;;9.52;67.27;100298.19;5043557;28;20041;-74
2024/01/01 10:39:44;;;;;;;67.18;64.07;;;;;;;9.53;67.27;100308.72;5030544;28;20095;-74
2024/01/01 10:42:10;;;;;;;64.10;61.15;;;;;;;9.53;67.15;100321.41;5029609;28;20037;-74
2024/01/01 10:44:36;;;;;;;73.90;70.40;;;;;;;9.51;67.28;100318.94;5020992;28;20120;-74
2024/01/01 10:47:07;;;;;;;66.28;63.15;;;;;;;9.51;67.24;100318.94;5029139;28;20033;-74
2024/01/01 10:49:32;;;;;;;74.25;70.85;;;;;;;9.51;67.41;100323.53;5027609;28;20049;-74
2024/01/01 10:52:13;;;;;;;65.93;62.92;;;;;;;9.52;67.50;100320.59;5017600;28;20041;-74
2024/01/01 10:54:54;;;;;;;67.40;64.35;;;;;;;9.54;67.35;100323.03;5022218;28;20040;-73
2024/01/01 10:57:44;;;;;;;65.30;62.35;;;;;;;9.54;67.32;100320.34;5030965;28;20037;-74
2024/01/01 11:00:21;;;;;;;70.13;66.28;;;;;;;9.55;67.05;100313.91;5025230;28;20033;-73
2024/01/01 11:02:47;;;;;;;67.10;64.07;;;;;;;9.56;67.32;100322.78;5032304;28;20052;-73
2024/01/01 11:05:12;;;;;;;66.85;63.85;;;;;;;9.58;67.25;100316.09;5037170;28;20569;-74
2024/01/01 11:08:00;;;;;;;73.00;69.28;;;;;;;9.60;67.39;100321.22;5013581;28;20030;-73
2024/01/01 11:10:45;;;;;;;74.35;70.82;;;;;;;9.60;67.16;100322.06;5038026;28;20127;-73
2024/01/01 11:13:33;;;;;;;63.80;60.90;;;;;;;9.60;67.23;100324.75;5019249;28;20034;-74
2024/01/01 11:16:00;;;;;;;71.13;67.80;;;;;;;9.62;67.14;100327.19;5028751;28;20033;-73
2024/01/01 11:18:33;;;;;;;71.32;67.85;;;;;;;9.63;67.12;100334.22;5028389;28;20394;-74